createdAt,value
2022-10-13T00:00:51.510Z,7.97
2022-10-13T00:01:51.437Z,8.00
2022-10-13T00:02:51.454Z,8.01
2022-10-13T00:03:51.486Z,8.06
2022-10-13T00:04:51.484Z,8.09
2022-10-13T00:05:51.501Z,8.10
2022-10-13T00:06:51.516Z,8.18
2022-10-13T00:07:51.530Z,8.19
2022-10-13T00:08:51.569Z,8.26
2022-10-13T00:09:51.559Z,8.34
2022-10-13T00:10:51.576Z,8.38
2022-10-13T00:11:51.589Z,8.42
2022-10-13T00:12:51.608Z,8.42
2022-10-13T00:13:51.644Z,8.44
2022-10-13T00:14:51.641Z,8.46
2022-10-13T00:15:51.656Z,8.48
2022-10-13T00:16:51.674Z,8.49
2022-10-13T00:17:51.689Z,8.49
2022-10-13T00:18:51.728Z,8.51
2022-10-13T00:19:51.721Z,8.48
2022-10-13T00:20:51.746Z,8.46
2022-10-13T00:21:51.749Z,8.46
2022-10-13T00:22:51.769Z,8.45
2022-10-13T00:23:51.802Z,8.51
2022-10-13T00:24:51.804Z,8.56
2022-10-13T00:25:51.818Z,8.63
2022-10-13T00:26:51.843Z,8.66
2022-10-13T00:27:51.844Z,8.67
2022-10-13T00:28:53.094Z,8.70
2022-10-13T00:29:51.873Z,8.71
2022-10-13T00:30:51.891Z,8.74
2022-10-13T00:31:51.904Z,8.71
2022-10-13T00:32:51.916Z,8.74
2022-10-13T00:33:51.955Z,8.74
2022-10-13T00:34:51.949Z,8.71
2022-10-13T00:35:51.969Z,8.69
2022-10-13T00:36:51.980Z,8.63
2022-10-13T00:37:52.003Z,8.58
2022-10-13T00:38:52.037Z,8.52
2022-10-13T00:39:52.035Z,8.49
2022-10-13T00:40:52.046Z,8.46
2022-10-13T00:41:52.067Z,8.44
2022-10-13T00:42:52.082Z,8.44
2022-10-13T00:43:52.123Z,8.41
2022-10-13T00:44:52.103Z,8.41
2022-10-13T00:45:52.129Z,8.38
2022-10-13T00:46:52.138Z,8.41
2022-10-13T00:47:52.155Z,8.41
2022-10-13T00:48:52.188Z,8.46
2022-10-13T00:49:52.187Z,8.51
2022-10-13T00:50:52.196Z,8.49
2022-10-13T00:51:52.216Z,8.48
2022-10-13T00:52:52.224Z,8.49
2022-10-13T00:53:52.262Z,8.51
2022-10-13T00:54:52.260Z,8.51
2022-10-13T00:55:52.278Z,8.53
2022-10-13T00:56:52.291Z,8.53
2022-10-13T00:57:52.307Z,8.55
2022-10-13T00:58:52.340Z,8.55
2022-10-13T00:59:52.341Z,8.51
2022-10-13T01:00:52.403Z,8.48
2022-10-13T01:01:52.374Z,8.46
2022-10-13T01:02:52.388Z,8.48
2022-10-13T01:03:52.402Z,8.51
2022-10-13T01:04:52.413Z,8.55
2022-10-13T01:05:52.446Z,8.56
2022-10-13T01:06:52.447Z,8.60
2022-10-13T01:07:52.462Z,8.61
2022-10-13T01:08:52.479Z,8.66
2022-10-13T01:09:52.497Z,8.70
2022-10-13T01:10:52.510Z,8.71
2022-10-13T01:11:52.533Z,8.70
2022-10-13T01:12:52.538Z,8.64
2022-10-13T01:13:52.555Z,8.58
2022-10-13T01:14:52.570Z,8.55
2022-10-13T01:15:52.586Z,8.58
2022-10-13T01:16:52.598Z,8.58
2022-10-13T01:17:52.612Z,8.61
2022-10-13T01:18:52.642Z,8.61
2022-10-13T01:19:52.648Z,8.64
2022-10-13T01:20:52.653Z,8.66
2022-10-13T01:21:52.670Z,8.66
2022-10-13T01:22:52.684Z,8.64
2022-10-13T01:23:52.719Z,8.64
2022-10-13T01:24:52.712Z,8.66
2022-10-13T01:25:52.728Z,8.69
2022-10-13T01:26:52.739Z,8.69
2022-10-13T01:27:52.757Z,8.71
2022-10-13T01:28:52.785Z,8.74
2022-10-13T01:29:52.789Z,8.76
2022-10-13T01:30:52.801Z,8.78
2022-10-13T01:31:52.827Z,8.78
2022-10-13T01:32:52.836Z,8.76
2022-10-13T01:33:52.871Z,8.79
2022-10-13T01:34:52.864Z,8.84
2022-10-13T01:35:52.888Z,8.87
2022-10-13T01:36:52.902Z,8.88
2022-10-13T01:37:52.918Z,8.88
2022-10-13T01:38:52.945Z,8.89
2022-10-13T01:39:52.944Z,8.92
2022-10-13T01:40:52.955Z,8.94
2022-10-13T01:41:52.970Z,9.00
2022-10-13T01:42:52.980Z,9.04
2022-10-13T01:43:53.015Z,9.06
2022-10-13T01:44:53.029Z,9.08
2022-10-13T01:45:53.027Z,9.13
2022-10-13T01:46:53.039Z,9.14
2022-10-13T01:47:53.056Z,9.21
2022-10-13T01:48:53.087Z,9.23
2022-10-13T01:49:53.082Z,9.26
2022-10-13T01:50:53.099Z,9.28
2022-10-13T01:51:53.114Z,9.25
2022-10-13T01:52:53.126Z,9.23
2022-10-13T01:53:53.163Z,9.25
2022-10-13T01:54:53.153Z,9.28
2022-10-13T01:55:53.174Z,9.28
2022-10-13T01:56:53.185Z,9.29
2022-10-13T01:57:53.198Z,9.29
2022-10-13T01:58:53.235Z,9.31
2022-10-13T01:59:53.232Z,9.29
2022-10-13T02:00:53.293Z,9.31
2022-10-13T02:01:53.266Z,9.31
2022-10-13T02:02:53.278Z,9.31
2022-10-13T02:03:53.314Z,9.28
2022-10-13T02:04:53.310Z,9.29
2022-10-13T02:05:53.326Z,9.29
2022-10-13T02:06:53.335Z,9.29
2022-10-13T02:07:53.360Z,9.28
2022-10-13T02:08:53.388Z,9.25
2022-10-13T02:09:53.402Z,9.25
2022-10-13T02:10:53.400Z,9.26
2022-10-13T02:11:53.418Z,9.28
2022-10-13T02:12:53.427Z,9.29
2022-10-13T02:13:53.465Z,9.32
2022-10-13T02:14:53.457Z,9.31
2022-10-13T02:15:53.479Z,9.29
2022-10-13T02:16:53.486Z,9.28
2022-10-13T02:17:53.503Z,9.31
2022-10-13T02:18:53.534Z,9.34
2022-10-13T02:19:53.539Z,9.34
2022-10-13T02:20:53.551Z,9.36
2022-10-13T02:21:53.568Z,9.37
2022-10-13T02:22:53.579Z,9.37
2022-10-13T02:23:53.614Z,9.40
2022-10-13T02:24:53.610Z,9.43
2022-10-13T02:25:53.625Z,9.44
2022-10-13T02:26:53.636Z,9.44
2022-10-13T02:27:53.654Z,9.43
2022-10-13T02:28:53.684Z,9.47
2022-10-13T02:29:53.688Z,9.46
2022-10-13T02:30:53.696Z,9.44
2022-10-13T02:31:53.717Z,9.44
2022-10-13T02:32:53.724Z,9.44
2022-10-13T02:33:53.763Z,9.46
2022-10-13T02:34:53.751Z,9.46
2022-10-13T02:35:53.774Z,9.47
2022-10-13T02:36:53.782Z,9.50
2022-10-13T02:37:53.796Z,9.50
2022-10-13T02:38:53.827Z,9.51
2022-10-13T02:39:53.826Z,9.51
2022-10-13T02:40:53.839Z,9.51
2022-10-13T02:41:53.856Z,9.50
2022-10-13T02:42:53.867Z,9.54
2022-10-13T02:43:53.907Z,9.54
2022-10-13T02:44:53.893Z,9.51
2022-10-13T02:45:53.909Z,9.51
2022-10-13T02:46:53.922Z,9.54
2022-10-13T02:47:53.938Z,9.56
2022-10-13T02:48:53.970Z,9.56
2022-10-13T02:49:53.969Z,9.58
2022-10-13T02:50:53.981Z,9.56
2022-10-13T02:51:53.998Z,9.59
2022-10-13T02:52:54.011Z,9.62
2022-10-13T02:53:54.029Z,9.62
2022-10-13T02:54:54.040Z,9.61
2022-10-13T02:55:54.059Z,9.59
2022-10-13T02:56:54.070Z,9.58
2022-10-13T02:57:54.086Z,9.59
2022-10-13T02:58:54.116Z,9.58
2022-10-13T02:59:54.120Z,9.61
2022-10-13T03:00:54.229Z,9.61
2022-10-13T03:01:54.149Z,9.62
2022-10-13T03:02:54.166Z,9.64
2022-10-13T03:03:54.199Z,9.65
2022-10-13T03:04:54.191Z,9.69
2022-10-13T03:05:54.207Z,9.73
2022-10-13T03:06:54.220Z,9.76
2022-10-13T03:07:54.238Z,9.74
2022-10-13T03:08:54.267Z,9.72
2022-10-13T03:09:54.271Z,9.73
2022-10-13T03:10:54.286Z,9.74
2022-10-13T03:11:54.301Z,9.73
2022-10-13T03:12:54.314Z,9.73
2022-10-13T03:13:54.349Z,9.74
2022-10-13T03:14:54.343Z,9.72
2022-10-13T03:15:54.360Z,9.73
2022-10-13T03:16:54.372Z,9.74
2022-10-13T03:17:54.388Z,9.73
2022-10-13T03:18:54.420Z,9.72
2022-10-13T03:19:54.422Z,9.69
2022-10-13T03:20:54.429Z,9.68
2022-10-13T03:21:54.446Z,9.66
2022-10-13T03:22:54.458Z,9.68
2022-10-13T03:23:54.496Z,9.68
2022-10-13T03:24:54.490Z,9.66
2022-10-13T03:25:54.503Z,9.66
2022-10-13T03:26:54.512Z,9.65
2022-10-13T03:28:54.070Z,9.64
2022-10-13T03:29:55.036Z,9.64
2022-10-13T03:30:55.060Z,9.62
2022-10-13T03:31:55.070Z,9.62
2022-10-13T03:32:55.085Z,9.65
2022-10-13T03:33:55.113Z,9.65
2022-10-13T03:34:55.120Z,9.66
2022-10-13T03:35:55.125Z,9.65
2022-10-13T03:36:55.149Z,9.69
2022-10-13T03:37:55.160Z,9.72
2022-10-13T03:38:55.203Z,9.73
2022-10-13T03:39:55.196Z,9.73
2022-10-13T03:40:55.212Z,9.72
2022-10-13T03:41:55.222Z,9.73
2022-10-13T03:42:55.247Z,9.73
2022-10-13T03:43:55.276Z,9.72
2022-10-13T03:44:56.463Z,9.72
2022-10-13T03:45:55.287Z,9.73
2022-10-13T03:46:55.310Z,9.72
2022-10-13T03:47:55.321Z,9.74
2022-10-13T03:48:55.365Z,9.74
2022-10-13T03:49:55.360Z,9.73
2022-10-13T03:50:55.382Z,9.74
2022-10-13T03:51:55.394Z,9.76
2022-10-13T03:52:55.416Z,9.77
2022-10-13T03:53:55.446Z,-39.78
2022-10-13T03:54:55.449Z,-39.78
2022-10-13T03:55:55.462Z,-39.78
2022-10-13T03:56:55.487Z,-39.78
2022-10-13T03:57:55.496Z,-39.78
2022-10-13T03:58:55.553Z,-39.78
2022-10-13T03:59:55.529Z,-39.78
2022-10-13T04:00:55.549Z,-39.78
2022-10-13T04:01:55.579Z,-39.78
2022-10-13T04:02:55.580Z,-39.78
2022-10-13T04:03:55.691Z,-39.78
2022-10-13T04:04:55.620Z,-39.78
2022-10-13T04:05:55.623Z,-39.78
2022-10-13T04:06:55.643Z,-39.78
2022-10-13T04:07:55.658Z,-39.78
2022-10-13T04:08:55.695Z,-39.78
2022-10-13T04:09:55.686Z,-39.78
2022-10-13T04:10:55.818Z,-39.78
2022-10-13T04:11:55.724Z,-39.78
2022-10-13T04:12:55.745Z,-39.78
2022-10-13T04:13:55.776Z,-39.78
2022-10-13T04:14:55.784Z,-39.78
2022-10-13T04:15:55.796Z,-39.78
2022-10-13T04:16:55.818Z,-39.78
2022-10-13T04:17:55.833Z,-39.78
2022-10-13T04:18:55.872Z,-39.78
2022-10-13T04:19:55.865Z,-39.78
2022-10-13T04:20:55.889Z,-39.78
2022-10-13T04:21:55.898Z,-39.78
2022-10-13T04:22:55.921Z,-39.78
2022-10-13T04:23:55.952Z,-39.78
2022-10-13T04:24:55.957Z,-39.78
2022-10-13T04:25:55.970Z,-39.78
2022-10-13T04:26:55.988Z,-39.78
2022-10-13T04:27:56.001Z,-39.78
2022-10-13T04:28:56.040Z,-39.78
2022-10-13T04:29:56.036Z,-39.78
2022-10-13T04:30:56.051Z,-39.78
2022-10-13T04:31:56.070Z,-39.78
2022-10-13T04:32:56.084Z,-39.78
2022-10-13T04:33:56.121Z,-39.78
2022-10-13T04:34:56.112Z,-39.78
2022-10-13T04:35:56.130Z,-39.78
2022-10-13T04:36:56.142Z,-39.78
2022-10-13T04:37:56.162Z,-39.78
2022-10-13T04:38:56.194Z,-39.78
2022-10-13T04:39:56.200Z,-39.78
2022-10-13T04:40:56.212Z,-39.78
2022-10-13T04:41:56.230Z,-39.78
2022-10-13T04:42:56.244Z,-39.78
2022-10-13T04:43:56.281Z,-39.78
2022-10-13T04:44:56.275Z,-39.78
2022-10-13T04:45:56.292Z,-39.78
2022-10-13T04:46:56.308Z,-39.78
2022-10-13T04:47:56.327Z,-39.78
2022-10-13T04:48:56.360Z,-39.78
2022-10-13T04:49:56.364Z,-39.78
2022-10-13T04:50:56.375Z,-39.78
2022-10-13T04:51:56.394Z,-39.78
2022-10-13T04:52:56.406Z,-39.78
2022-10-13T04:53:56.445Z,-39.78
2022-10-13T04:54:56.434Z,-39.78
2022-10-13T04:55:56.459Z,-39.78
2022-10-13T04:56:56.472Z,-39.78
2022-10-13T04:57:56.489Z,-39.78
2022-10-13T04:58:56.519Z,-39.78
2022-10-13T04:59:56.525Z,-39.78
2022-10-13T05:00:56.603Z,-39.78
2022-10-13T05:01:56.559Z,-39.78
2022-10-13T05:02:56.574Z,-39.78
2022-10-13T05:03:56.612Z,-39.78
2022-10-13T05:04:56.602Z,-39.78
2022-10-13T05:05:56.622Z,-39.78
2022-10-13T05:07:17.079Z,-39.78
2022-10-13T05:07:56.664Z,-39.78
2022-10-13T05:08:56.696Z,-39.78
2022-10-13T05:09:56.696Z,-39.78
2022-10-13T05:10:56.710Z,-39.78
2022-10-13T05:11:56.730Z,-39.78
2022-10-13T05:12:56.742Z,-39.78
2022-10-13T05:13:56.780Z,-39.78
2022-10-13T05:14:56.768Z,-39.78
2022-10-13T05:15:56.788Z,-39.78
2022-10-13T05:16:56.800Z,-39.78
2022-10-13T05:17:56.821Z,-39.78
2022-10-13T05:18:56.851Z,-39.78
2022-10-13T05:19:56.855Z,-39.78
2022-10-13T05:20:56.869Z,-39.78
2022-10-13T05:21:56.886Z,-39.78
2022-10-13T05:22:56.899Z,-39.78
2022-10-13T05:23:56.937Z,-39.78
2022-10-13T05:24:56.929Z,-39.78
2022-10-13T05:25:56.948Z,-39.78
2022-10-13T05:26:56.960Z,-39.78
2022-10-13T05:27:56.977Z,-39.78
2022-10-13T05:28:57.010Z,-39.78
2022-10-13T05:29:57.012Z,-39.78
2022-10-13T05:30:57.027Z,-39.78
2022-10-13T05:31:57.044Z,-39.78
2022-10-13T05:32:57.057Z,-39.78
2022-10-13T05:33:57.095Z,-39.78
2022-10-13T05:34:57.084Z,-39.78
2022-10-13T05:35:57.102Z,-39.78
2022-10-13T05:36:57.115Z,-39.78
2022-10-13T05:37:57.133Z,-39.78
2022-10-13T05:38:57.164Z,-39.78
2022-10-13T05:39:57.167Z,-39.78
2022-10-13T05:40:57.180Z,-39.78
2022-10-13T05:41:57.199Z,-39.78
2022-10-13T05:42:57.212Z,-39.78
2022-10-13T05:43:57.246Z,-39.78
2022-10-13T05:44:57.236Z,-39.78
2022-10-13T05:45:57.254Z,-39.78
2022-10-13T05:46:57.267Z,-39.78
2022-10-13T05:47:57.284Z,-39.78
2022-10-13T05:48:57.342Z,-39.78
2022-10-13T05:49:57.319Z,-39.78
2022-10-13T05:50:57.332Z,-39.78
2022-10-13T05:51:57.351Z,-39.78
2022-10-13T05:52:57.364Z,-39.78
2022-10-13T05:53:57.944Z,-39.78
2022-10-13T05:54:57.394Z,-39.78
2022-10-13T05:55:57.415Z,-39.78
2022-10-13T05:56:57.426Z,-39.78
2022-10-13T05:57:57.448Z,-39.78
2022-10-13T05:58:57.478Z,-39.78
2022-10-13T05:59:57.537Z,-39.78
2022-10-13T06:00:57.491Z,-39.78
2022-10-13T06:01:57.628Z,-39.78
2022-10-13T06:02:57.522Z,-39.78
2022-10-13T06:03:57.560Z,-39.78
2022-10-13T06:04:57.558Z,-39.78
2022-10-13T06:05:57.569Z,-39.78
2022-10-13T06:06:57.585Z,-39.78
2022-10-13T06:07:57.604Z,-39.78
2022-10-13T06:08:57.636Z,-39.78
2022-10-13T06:09:57.638Z,-39.78
2022-10-13T06:10:57.654Z,-39.78
2022-10-13T06:11:57.673Z,-39.78
2022-10-13T06:12:57.685Z,-39.78
2022-10-13T06:13:57.728Z,-39.78
2022-10-13T06:14:57.715Z,-39.78
2022-10-13T06:15:57.735Z,-39.78
2022-10-13T06:16:57.750Z,-39.78
2022-10-13T06:17:57.767Z,-39.78
2022-10-13T06:18:57.798Z,-39.78
2022-10-13T06:19:57.804Z,-39.78
2022-10-13T06:20:57.818Z,-39.78
2022-10-13T06:22:02.580Z,-39.78
2022-10-13T06:22:57.856Z,-39.78
2022-10-13T06:23:57.892Z,-39.78
2022-10-13T06:24:57.882Z,-39.78
2022-10-13T06:25:57.906Z,-39.78
2022-10-13T06:26:57.916Z,-39.78
2022-10-13T06:27:57.944Z,-39.78
2022-10-13T06:28:59.699Z,-39.78
2022-10-13T06:29:57.973Z,-39.78
2022-10-13T06:30:57.985Z,-39.78
2022-10-13T06:31:58.024Z,-39.78
2022-10-13T06:32:58.015Z,-39.78
2022-10-13T06:33:58.054Z,-39.78
2022-10-13T06:34:58.044Z,-39.78
2022-10-13T06:35:58.064Z,-39.78
2022-10-13T06:36:58.078Z,-39.78
2022-10-13T06:37:58.098Z,-39.78
2022-10-13T06:38:58.141Z,-39.78
2022-10-13T06:39:58.135Z,-39.78
2022-10-13T06:40:58.150Z,-39.78
2022-10-13T06:41:58.170Z,-39.78
2022-10-13T06:42:58.184Z,-39.78
2022-10-13T06:43:58.224Z,-39.78
2022-10-13T06:44:58.220Z,-39.78
2022-10-13T06:45:58.236Z,-39.78
2022-10-13T06:46:58.248Z,-39.78
2022-10-13T06:47:58.269Z,-39.78
2022-10-13T06:48:58.320Z,-39.78
2022-10-13T06:49:58.303Z,-39.78
2022-10-13T06:50:58.319Z,-39.78
2022-10-13T06:51:58.339Z,-39.78
2022-10-13T06:52:58.357Z,-39.78
2022-10-13T06:53:58.389Z,-39.78
2022-10-13T06:54:58.377Z,-39.78
2022-10-13T06:55:58.397Z,-39.78
2022-10-13T06:56:58.411Z,-39.78
2022-10-13T06:57:58.476Z,-39.78
2022-10-13T06:58:58.464Z,-39.78
2022-10-13T06:59:58.470Z,-39.78
2022-10-13T07:00:58.546Z,-39.78
2022-10-13T07:01:58.508Z,-39.78
2022-10-13T07:02:58.528Z,-39.78
2022-10-13T07:03:58.557Z,-39.78
2022-10-13T07:04:58.547Z,-39.78
2022-10-13T07:05:58.568Z,-39.78
2022-10-13T07:06:58.580Z,-39.78
2022-10-13T07:07:58.599Z,-39.78
2022-10-13T07:08:58.631Z,-39.78
2022-10-13T07:09:58.635Z,-39.78
2022-10-13T07:10:58.648Z,-39.78
2022-10-13T07:11:58.675Z,-39.78
2022-10-13T07:12:58.673Z,-39.78
2022-10-13T07:13:58.766Z,-39.78
2022-10-13T07:14:58.702Z,-39.78
2022-10-13T07:15:58.722Z,-39.78
2022-10-13T07:16:58.753Z,-39.78
2022-10-13T07:17:58.751Z,-39.78
2022-10-13T07:18:58.779Z,-39.78
2022-10-13T07:20:01.331Z,-39.78
2022-10-13T07:20:58.803Z,-39.78
2022-10-13T07:21:58.817Z,-39.78
2022-10-13T07:22:58.837Z,-39.78
2022-10-13T07:23:58.872Z,-39.78
2022-10-13T07:24:59.002Z,-39.78
2022-10-13T07:25:58.892Z,-39.78
2022-10-13T07:27:00.912Z,-39.78
2022-10-13T07:27:58.923Z,-39.78
2022-10-13T07:28:59.007Z,-39.78
2022-10-13T07:29:58.948Z,-39.78
2022-10-13T07:30:58.963Z,-39.78
2022-10-13T07:31:58.982Z,-39.78
2022-10-13T07:32:58.995Z,-39.78
2022-10-13T07:33:59.018Z,-39.78
2022-10-13T07:34:59.032Z,-39.78
2022-10-13T07:35:59.054Z,-39.78
2022-10-13T07:36:59.074Z,-39.78
2022-10-13T07:37:59.119Z,-39.78
2022-10-13T07:38:59.102Z,-39.78
2022-10-13T07:39:59.121Z,-39.78
2022-10-13T07:40:59.135Z,-39.78
2022-10-13T07:41:59.155Z,-39.78
2022-10-13T07:42:59.174Z,-39.78
2022-10-13T07:43:59.193Z,-39.78
2022-10-13T07:44:59.207Z,-39.78
2022-10-13T07:45:59.226Z,-39.78
2022-10-13T07:46:59.239Z,-39.78
2022-10-13T07:47:59.258Z,-39.78
2022-10-13T07:48:59.273Z,-39.78
2022-10-13T07:49:59.294Z,-39.78
2022-10-13T07:50:59.310Z,-39.78
2022-10-13T07:51:59.329Z,-39.78
2022-10-13T07:52:59.412Z,-39.78
2022-10-13T07:53:59.366Z,-39.78
2022-10-13T07:54:59.379Z,-39.78
2022-10-13T07:55:59.399Z,-39.78
2022-10-13T07:56:59.411Z,-39.78
2022-10-13T07:57:59.431Z,-39.78
2022-10-13T07:58:59.448Z,-39.78
2022-10-13T07:59:59.473Z,-39.78
2022-10-13T08:00:59.725Z,-39.78
2022-10-13T08:01:59.641Z,-39.78
2022-10-13T08:02:59.598Z,-39.78
2022-10-13T08:03:59.538Z,-39.78
2022-10-13T08:04:59.549Z,-39.78
2022-10-13T08:05:59.570Z,-39.78
2022-10-13T08:06:59.582Z,-39.78
2022-10-13T08:07:59.601Z,-39.78
2022-10-13T08:08:59.620Z,-39.78
2022-10-13T08:09:59.634Z,-39.78
2022-10-13T08:10:59.783Z,-39.78
2022-10-13T08:12:00.956Z,-39.78
2022-10-13T08:12:59.672Z,-39.78
2022-10-13T08:13:59.693Z,-39.78
2022-10-13T08:15:02.009Z,-39.78
2022-10-13T08:15:59.738Z,-39.78
2022-10-13T08:16:59.738Z,-39.78
2022-10-13T08:17:59.759Z,-39.78
2022-10-13T08:18:59.778Z,-39.78
2022-10-13T08:19:59.792Z,-39.78
2022-10-13T08:21:23.819Z,-39.78
2022-10-13T08:22:00.455Z,-39.78
2022-10-13T08:22:59.843Z,-39.78
2022-10-13T08:23:59.881Z,-39.78
2022-10-13T08:24:59.867Z,-39.78
2022-10-13T08:25:59.889Z,-39.78
2022-10-13T08:26:59.899Z,-39.78
2022-10-13T08:28:00.602Z,-39.78
2022-10-13T08:29:20.120Z,-39.78
2022-10-13T08:29:59.960Z,-39.78
2022-10-13T08:31:00.210Z,-39.78
2022-10-13T08:31:59.985Z,-39.78
2022-10-13T08:32:59.997Z,-39.78
2022-10-13T08:34:00.039Z,-39.78
2022-10-13T08:35:00.023Z,-39.78
2022-10-13T08:36:00.041Z,-39.78
2022-10-13T08:37:00.054Z,-39.78
2022-10-13T08:38:00.080Z,-39.78
2022-10-13T08:39:00.103Z,-39.78
2022-10-13T08:40:00.112Z,-39.78
2022-10-13T08:41:00.127Z,-39.78
2022-10-13T08:42:00.144Z,-39.78
2022-10-13T08:43:00.692Z,-39.78
2022-10-13T08:44:39.662Z,-39.78
2022-10-13T08:45:22.138Z,-39.78
2022-10-13T08:46:00.227Z,-39.78
2022-10-13T08:47:00.234Z,-39.78
2022-10-13T08:48:00.250Z,-39.78
2022-10-13T08:49:00.284Z,-39.78
2022-10-13T08:50:01.066Z,-39.78
2022-10-13T08:51:00.294Z,-39.78
2022-10-13T08:52:00.307Z,-39.78
2022-10-13T08:53:00.324Z,-39.78
2022-10-13T08:54:00.383Z,-39.78
2022-10-13T08:55:00.359Z,-39.78
2022-10-13T08:56:00.375Z,-39.78
2022-10-13T08:58:00.409Z,-39.78
2022-10-13T08:59:00.452Z,-39.78
2022-10-13T09:00:00.442Z,-39.78
2022-10-13T09:01:00.460Z,-39.78
2022-10-13T09:02:00.543Z,-39.78
2022-10-13T09:03:00.495Z,-39.78
2022-10-13T09:04:00.542Z,-39.78
2022-10-13T09:05:00.533Z,-39.78
2022-10-13T09:06:00.544Z,-39.78
2022-10-13T09:07:00.574Z,-39.78
2022-10-13T09:08:00.575Z,-39.78
2022-10-13T09:09:00.614Z,-39.78
2022-10-13T09:10:00.605Z,-39.78
2022-10-13T09:11:00.635Z,-39.78
2022-10-13T09:12:00.638Z,-39.78
2022-10-13T09:13:00.662Z,-39.78
2022-10-13T09:14:00.687Z,-39.78
2022-10-13T09:15:00.693Z,-39.78
2022-10-13T09:16:00.705Z,-39.78
2022-10-13T09:17:00.726Z,-39.78
2022-10-13T09:18:00.737Z,-39.78
2022-10-13T09:19:00.776Z,-39.78
2022-10-13T09:20:00.765Z,-39.78
2022-10-13T09:21:00.801Z,-39.78
2022-10-13T09:22:00.802Z,-39.78
2022-10-13T09:23:00.823Z,-39.78
2022-10-13T09:24:00.855Z,-39.78
2022-10-13T09:25:00.859Z,-39.78
2022-10-13T09:26:00.871Z,-39.78
2022-10-13T09:27:00.893Z,-39.78
2022-10-13T09:28:00.904Z,-39.78
2022-10-13T09:29:01.000Z,-39.78
2022-10-13T09:30:00.940Z,-39.78
2022-10-13T09:31:00.957Z,-39.78
2022-10-13T09:32:01.005Z,-39.78
2022-10-13T09:33:00.994Z,-39.78
2022-10-13T09:34:01.030Z,-39.78
2022-10-13T09:35:01.030Z,-39.78
2022-10-13T09:36:01.044Z,-39.78
2022-10-13T09:37:01.066Z,-39.78
2022-10-13T09:38:01.089Z,-39.78
2022-10-13T09:39:01.120Z,-39.78
2022-10-13T09:40:01.111Z,-39.78
2022-10-13T09:41:01.130Z,-39.78
2022-10-13T09:42:01.149Z,-39.78
2022-10-13T09:43:01.177Z,-39.78
2022-10-13T09:44:01.196Z,-39.78
2022-10-13T09:45:01.203Z,-39.78
2022-10-13T09:46:01.218Z,-39.78
2022-10-13T09:47:01.237Z,-39.78
2022-10-13T09:48:01.251Z,-39.78
2022-10-13T09:49:01.275Z,-39.78
2022-10-13T09:50:06.457Z,-39.78
2022-10-13T09:51:01.309Z,-39.78
2022-10-13T09:52:01.315Z,-39.78
2022-10-13T09:53:01.335Z,-39.78
2022-10-13T09:54:01.367Z,-39.78
2022-10-13T09:55:01.372Z,-39.78
2022-10-13T09:56:01.385Z,-39.78
2022-10-13T09:57:01.405Z,-39.78
2022-10-13T09:58:01.420Z,-39.78
2022-10-13T09:59:01.459Z,-39.78
2022-10-13T10:01:01.467Z,-39.78
2022-10-13T10:02:01.513Z,-39.78
2022-10-13T10:03:01.499Z,-39.78
2022-10-13T10:04:01.573Z,-39.78
2022-10-13T10:05:01.551Z,-39.78
2022-10-13T10:06:01.634Z,-39.78
2022-10-13T10:07:01.571Z,-39.78
2022-10-13T10:08:01.584Z,-39.78
2022-10-13T10:09:04.155Z,-39.78
2022-10-13T10:10:01.619Z,-39.78
2022-10-13T10:11:01.635Z,-39.78
2022-10-13T10:12:01.647Z,-39.78
2022-10-13T10:13:01.666Z,-39.78
2022-10-13T10:14:01.699Z,-39.78
2022-10-13T10:15:01.704Z,-39.78
2022-10-13T10:16:01.716Z,-39.78
2022-10-13T10:17:01.734Z,-39.78
2022-10-13T10:18:01.798Z,-39.78
2022-10-13T10:19:01.808Z,-39.78
2022-10-13T10:20:01.798Z,-39.78
2022-10-13T10:21:01.805Z,-39.78
2022-10-13T10:22:01.817Z,-39.78
2022-10-13T10:23:01.836Z,-39.78
2022-10-13T10:24:01.865Z,-39.78
2022-10-13T10:25:01.869Z,-39.78
2022-10-13T10:26:01.881Z,-39.78
2022-10-13T10:27:01.907Z,-39.78
2022-10-13T10:28:01.915Z,-39.78
2022-10-13T10:29:02.075Z,-39.78
2022-10-13T10:30:01.954Z,-39.78
2022-10-13T10:31:01.971Z,-39.78
2022-10-13T10:32:01.981Z,-39.78
2022-10-13T10:33:01.998Z,-39.78
2022-10-13T10:34:02.042Z,-39.78
2022-10-13T10:35:02.034Z,-39.78
2022-10-13T10:36:02.047Z,-39.78
2022-10-13T10:37:02.066Z,-39.78
2022-10-13T10:38:02.083Z,-39.78
2022-10-13T10:39:02.120Z,-39.78
2022-10-13T10:40:02.112Z,-39.78
2022-10-13T10:41:02.131Z,-39.78
2022-10-13T10:42:02.144Z,-39.78
2022-10-13T10:43:02.164Z,-39.78
2022-10-13T10:44:02.196Z,-39.78
2022-10-13T10:45:02.232Z,-39.78
2022-10-13T10:46:02.211Z,-39.78
2022-10-13T10:47:02.230Z,-39.78
2022-10-13T10:48:02.247Z,-39.78
2022-10-13T10:49:02.267Z,-39.78
2022-10-13T10:50:02.282Z,-39.78
2022-10-13T10:51:02.302Z,-39.78
2022-10-13T10:52:02.314Z,-39.78
2022-10-13T10:53:02.335Z,-39.78
2022-10-13T10:54:02.349Z,-39.78
2022-10-13T10:55:02.371Z,-39.78
2022-10-13T10:56:02.382Z,-39.78
2022-10-13T10:57:02.402Z,-39.78
2022-10-13T10:58:02.415Z,-39.78
2022-10-13T10:59:02.439Z,-39.78
2022-10-13T11:00:02.492Z,-39.78
2022-10-13T11:01:02.476Z,-39.78
2022-10-13T11:02:02.490Z,-39.78
2022-10-13T11:03:02.509Z,-39.78
2022-10-13T11:04:02.545Z,-39.78
2022-10-13T11:05:06.077Z,-39.78
2022-10-13T11:06:02.562Z,-39.78
2022-10-13T11:07:02.584Z,-39.78
2022-10-13T11:08:02.611Z,-39.78
2022-10-13T11:09:02.615Z,-39.78
2022-10-13T11:10:02.627Z,-39.78
2022-10-13T11:11:02.653Z,-39.78
2022-10-13T11:12:02.733Z,-39.78
2022-10-13T11:13:02.710Z,-39.78
2022-10-13T11:14:02.693Z,-39.78
2022-10-13T11:15:02.719Z,-39.78
2022-10-13T11:16:02.725Z,-39.78
2022-10-13T11:17:02.747Z,-39.78
2022-10-13T11:18:02.843Z,-39.78
2022-10-13T11:19:02.785Z,-39.78
2022-10-13T11:20:02.797Z,-39.78
2022-10-13T11:21:02.820Z,-39.78
2022-10-13T11:22:02.831Z,-39.78
2022-10-13T11:23:02.870Z,-39.78
2022-10-13T11:24:02.865Z,-39.78
2022-10-13T11:25:02.886Z,-39.78
2022-10-13T11:26:02.899Z,-39.78
2022-10-13T11:27:02.919Z,-39.78
2022-10-13T11:28:02.936Z,-39.78
2022-10-13T11:29:02.953Z,-39.78
2022-10-13T11:30:02.966Z,-39.78
2022-10-13T11:31:02.994Z,-39.78
2022-10-13T11:32:03.000Z,-39.78
2022-10-13T11:33:03.040Z,-39.78
2022-10-13T11:34:03.036Z,-39.78
2022-10-13T11:35:03.054Z,-39.78
2022-10-13T11:36:03.066Z,-39.78
2022-10-13T11:37:03.089Z,-39.78
2022-10-13T11:38:07.789Z,-39.78
2022-10-13T11:39:03.130Z,-39.78
2022-10-13T11:40:03.135Z,-39.78
2022-10-13T11:41:03.154Z,-39.78
2022-10-13T11:42:03.173Z,-39.78
2022-10-13T11:43:05.211Z,-39.78
2022-10-13T11:44:03.203Z,-39.78
2022-10-13T11:45:03.225Z,-39.78
2022-10-13T11:46:03.239Z,-39.78
2022-10-13T11:47:03.259Z,-39.78
2022-10-13T11:48:03.325Z,-39.78
2022-10-13T11:49:03.291Z,-39.78
2022-10-13T11:50:03.304Z,-39.78
2022-10-13T11:51:03.321Z,-39.78
2022-10-13T11:52:03.334Z,-39.78
2022-10-13T11:53:03.372Z,-39.78
2022-10-13T11:54:03.360Z,-39.78
2022-10-13T11:55:03.381Z,-39.78
2022-10-13T11:56:03.392Z,-39.78
2022-10-13T11:57:03.412Z,-39.78
2022-10-13T11:58:03.443Z,-39.78
2022-10-13T11:59:03.449Z,-39.78
2022-10-13T12:00:03.464Z,-39.78
2022-10-13T12:01:03.484Z,-39.78
2022-10-13T12:02:03.492Z,-39.78
2022-10-13T12:03:03.587Z,-39.78
2022-10-13T12:04:03.524Z,-39.78
2022-10-13T12:05:03.544Z,-39.78
2022-10-13T12:06:03.555Z,-39.78
2022-10-13T12:07:03.579Z,-39.78
2022-10-13T12:08:03.609Z,-39.78
2022-10-13T12:09:03.613Z,-39.78
2022-10-13T12:10:03.626Z,-39.78
2022-10-13T12:11:03.644Z,-39.78
2022-10-13T12:12:03.659Z,-39.78
2022-10-13T12:13:03.697Z,-39.78
2022-10-13T12:14:03.687Z,-39.78
2022-10-13T12:15:06.805Z,-39.78
2022-10-13T12:16:03.719Z,-39.78
2022-10-13T12:17:03.738Z,-39.78
2022-10-13T12:18:03.769Z,-39.78
2022-10-13T12:19:03.796Z,-39.78
2022-10-13T12:20:03.782Z,-39.78
2022-10-13T12:21:03.803Z,-39.78
2022-10-13T12:22:03.816Z,-39.78
2022-10-13T12:23:03.855Z,-39.78
2022-10-13T12:24:03.844Z,-39.78
2022-10-13T12:25:03.865Z,-39.78
2022-10-13T12:26:03.878Z,-39.78
2022-10-13T12:27:03.898Z,-39.78
2022-10-13T12:28:03.929Z,-39.78
2022-10-13T12:29:03.936Z,-39.78
2022-10-13T12:30:03.947Z,-39.78
2022-10-13T12:31:03.968Z,-39.78
2022-10-13T12:32:04.001Z,-39.78
2022-10-13T12:33:04.008Z,-39.78
2022-10-13T12:34:04.199Z,-39.78
2022-10-13T12:35:04.040Z,-39.78
2022-10-13T12:36:04.051Z,-39.78
2022-10-13T12:37:04.086Z,-39.78
2022-10-13T12:38:04.232Z,-39.78
2022-10-13T12:39:04.105Z,-39.78
2022-10-13T12:40:04.115Z,-39.78
2022-10-13T12:41:04.133Z,-39.78
2022-10-13T12:42:04.187Z,-39.78
2022-10-13T12:43:04.322Z,-39.78
2022-10-13T12:44:06.609Z,-39.78
2022-10-13T12:45:04.208Z,-39.78
2022-10-13T12:46:04.220Z,-39.78
2022-10-13T12:47:04.261Z,-39.78